Montrose, Colorado
Current Conditions -  °F | °C
As of 7:53 PM on Tuesday 21 Oct 2014 (Local Time) from KMTJ Reporting Station
Broken Clouds Broken Clouds  
Wind Chill: 54°   Ceiling: 11000
Heat Index: 54°   Visibility: 10mi
Dew Point: 45°   Wind: 8mph
Humidity: 72%   Direction: 110°ESE
Pressure: 30.04"   Gusts: NA
Location:  38.48°N, 107.87°W
Report Text: KMTJ 220153Z AUTO 11007KT 10SM BKN110 12/07 A3004 RMK AO2 LTG DSNT N SLP129 T01220072
Loading
Personal Weather Stations






























Interactive Weather Map
Tropical Storm Tracking
New forecast layout! Learn more

10-Day Weather Forecast

Advertisements
Track Severe Weather on mobile